Terminal Aerodrome Forecast
Issued by NWS

Home | Current Version | Previous Version | Graphics & Text | Print | Product List | Glossary On
Versions: 1 2 3 4 5 6 7 8 9 10 11 12 13
000
FTUS43 KGRB 160334 AAA
TAFCWA
TAF AMD
KCWA 160334Z 1604/1624 34010KT P6SM BKN025 OVC200
      TEMPO 1604/1608 -SHSN BKN030
     FM160900 31009KT P6SM SKC
     FM161500 28010G16KT P6SM SKC
      AMD LTD TO CLD VIS AND WIND TIL 161100=

USA.gov is the U.S. government's official web portal to all federal, state and local government web resources and services.